sensor_id;sensor_type;location;lat;lon;timestamp;pressure;altitude;pressure_sealevel;temperature;humidity
76832;BME280;65792;52.880;13.012;2022-12-18T00:02:14;102891.91;;;-6.73;96.10
76832;BME280;65792;52.880;13.012;2022-12-18T00:04:40;102887.75;;;-6.52;96.03
76832;BME280;65792;52.880;13.012;2022-12-18T00:07:06;102889.28;;;-6.55;95.91
76832;BME280;65792;52.880;13.012;2022-12-18T00:09:32;102879.78;;;-6.62;95.41
76832;BME280;65792;52.880;13.012;2022-12-18T00:11:57;102884.84;;;-6.82;95.81
76832;BME280;65792;52.880;13.012;2022-12-18T00:14:23;102886.28;;;-6.67;96.58
76832;BME280;65792;52.880;13.012;2022-12-18T00:16:49;102880.00;;;-6.77;95.71
76832;BME280;65792;52.880;13.012;2022-12-18T00:19:14;102882.72;;;-6.73;95.87
76832;BME280;65792;52.880;13.012;2022-12-18T00:21:41;102888.19;;;-6.62;96.00
76832;BME280;65792;52.880;13.012;2022-12-18T00:24:07;102879.53;;;-6.68;95.36
76832;BME280;65792;52.880;13.012;2022-12-18T00:26:34;102889.41;;;-6.73;95.91
76832;BME280;65792;52.880;13.012;2022-12-18T00:29:04;102890.94;;;-6.56;95.38
76832;BME280;65792;52.880;13.012;2022-12-18T00:31:30;102886.16;;;-6.71;95.22
76832;BME280;65792;52.880;13.012;2022-12-18T00:33:57;102889.75;;;-6.64;95.59
76832;BME280;65792;52.880;13.012;2022-12-18T00:36:25;102892.16;;;-6.67;95.00
76832;BME280;65792;52.880;13.012;2022-12-18T00:38:53;102890.00;;;-6.79;95.21
76832;BME280;65792;52.880;13.012;2022-12-18T00:41:19;102886.56;;;-6.60;95.25
76832;BME280;65792;52.880;13.012;2022-12-18T00:44:05;102887.50;;;-6.79;96.25
76832;BME280;65792;52.880;13.012;2022-12-18T00:46:31;102887.06;;;-6.68;95.24
76832;BME280;65792;52.880;13.012;2022-12-18T00:48:57;102881.19;;;-6.69;95.79
76832;BME280;65792;52.880;13.012;2022-12-18T00:51:24;102889.81;;;-6.83;95.54
76832;BME280;65792;52.880;13.012;2022-12-18T00:53:50;102896.31;;;-6.88;96.01
76832;BME280;65792;52.880;13.012;2022-12-18T00:56:16;102888.69;;;-6.90;95.59
76832;BME280;65792;52.880;13.012;2022-12-18T00:58:41;102893.13;;;-7.05;96.04
76832;BME280;65792;52.880;13.012;2022-12-18T01:01:10;102891.22;;;-6.90;96.21
76832;BME280;65792;52.880;13.012;2022-12-18T01:03:36;102884.00;;;-6.82;96.17
76832;BME280;65792;52.880;13.012;2022-12-18T01:06:09;102888.22;;;-6.81;95.80
76832;BME280;65792;52.880;13.012;2022-12-18T01:08:35;102893.56;;;-6.94;96.22
76832;BME280;65792;52.880;13.012;2022-12-18T01:11:11;102892.75;;;-6.73;96.02
76832;BME280;65792;52.880;13.012;2022-12-18T01:13:38;102901.22;;;-6.71;96.07
76832;BME280;65792;52.880;13.012;2022-12-18T01:16:03;102907.63;;;-6.58;95.22
76832;BME280;65792;52.880;13.012;2022-12-18T01:18:29;102907.28;;;-6.86;95.69
76832;BME280;65792;52.880;13.012;2022-12-18T01:20:55;102912.16;;;-6.70;95.47
76832;BME280;65792;52.880;13.012;2022-12-18T01:23:20;102911.53;;;-6.64;95.13
76832;BME280;65792;52.880;13.012;2022-12-18T01:25:46;102917.38;;;-7.06;95.47
76832;BME280;65792;52.880;13.012;2022-12-18T01:28:12;102922.16;;;-6.91;96.08
76832;BME280;65792;52.880;13.012;2022-12-18T01:30:37;102927.69;;;-6.99;95.55
76832;BME280;65792;52.880;13.012;2022-12-18T01:33:06;102934.94;;;-6.86;95.76
76832;BME280;65792;52.880;13.012;2022-12-18T01:35:31;102936.66;;;-6.85;95.25
76832;BME280;65792;52.880;13.012;2022-12-18T01:37:57;102937.03;;;-7.16;95.82
76832;BME280;65792;52.880;13.012;2022-12-18T01:40:23;102936.03;;;-7.00;96.05
76832;BME280;65792;52.880;13.012;2022-12-18T01:42:52;102938.53;;;-7.00;96.17
76832;BME280;65792;52.880;13.012;2022-12-18T01:47:44;102940.88;;;-7.05;96.00
76832;BME280;65792;52.880;13.012;2022-12-18T01:50:18;102944.50;;;-6.98;95.79
76832;BME280;65792;52.880;13.012;2022-12-18T01:52:47;102951.53;;;-6.90;95.70
76832;BME280;65792;52.880;13.012;2022-12-18T01:55:16;102945.09;;;-7.04;96.09
76832;BME280;65792;52.880;13.012;2022-12-18T01:57:43;102949.53;;;-6.98;95.99
76832;BME280;65792;52.880;13.012;2022-12-18T02:00:12;102940.53;;;-7.13;95.85
76832;BME280;65792;52.880;13.012;2022-12-18T02:02:39;102942.06;;;-6.97;95.93
76832;BME280;65792;52.880;13.012;2022-12-18T02:05:06;102951.31;;;-7.15;95.83
76832;BME280;65792;52.880;13.012;2022-12-18T02:07:48;102942.06;;;-6.97;95.69
76832;BME280;65792;52.880;13.012;2022-12-18T02:13:30;102939.16;;;-7.06;95.57
76832;BME280;65792;52.880;13.012;2022-12-18T02:16:09;102944.91;;;-7.09;96.14
76832;BME280;65792;52.880;13.012;2022-12-18T02:18:41;102943.31;;;-7.26;95.81
76832;BME280;65792;52.880;13.012;2022-12-18T02:24:11;102942.25;;;-7.12;95.64
76832;BME280;65792;52.880;13.012;2022-12-18T02:26:56;102938.81;;;-6.94;94.94
76832;BME280;65792;52.880;13.012;2022-12-18T02:30:07;102952.84;;;-6.99;95.44
76832;BME280;65792;52.880;13.012;2022-12-18T02:32:15;102949.25;;;-7.05;96.27
76832;BME280;65792;52.880;13.012;2022-12-18T02:34:43;102960.44;;;-7.17;96.22
76832;BME280;65792;52.880;13.012;2022-12-18T02:37:12;102948.94;;;-7.12;96.06
76832;BME280;65792;52.880;13.012;2022-12-18T02:39:42;102952.22;;;-6.94;96.13
76832;BME280;65792;52.880;13.012;2022-12-18T02:42:09;102947.47;;;-7.07;95.53
76832;BME280;65792;52.880;13.012;2022-12-18T02:44:46;102941.19;;;-6.97;95.22
76832;BME280;65792;52.880;13.012;2022-12-18T02:47:14;102944.50;;;-6.98;95.51
76832;BME280;65792;52.880;13.012;2022-12-18T02:54:49;102937.22;;;-7.12;95.30
76832;BME280;65792;52.880;13.012;2022-12-18T03:00:01;102942.25;;;-7.31;95.67
76832;BME280;65792;52.880;13.012;2022-12-18T03:05:27;102945.31;;;-7.38;95.20
76832;BME280;65792;52.880;13.012;2022-12-18T03:08:00;102939.22;;;-7.43;95.33
76832;BME280;65792;52.880;13.012;2022-12-18T03:10:32;102940.53;;;-7.51;95.64
76832;BME280;65792;52.880;13.012;2022-12-18T03:13:05;102937.81;;;-7.56;96.34
76832;BME280;65792;52.880;13.012;2022-12-18T03:15:39;102930.00;;;-7.62;96.32
76832;BME280;65792;52.880;13.012;2022-12-18T03:18:17;102932.00;;;-7.55;96.07
76832;BME280;65792;52.880;13.012;2022-12-18T03:20:45;102925.47;;;-7.51;95.27
76832;BME280;65792;52.880;13.012;2022-12-18T03:23:16;102921.78;;;-7.40;95.42
76832;BME280;65792;52.880;13.012;2022-12-18T03:25:44;102933.34;;;-7.44;95.72
76832;BME280;65792;52.880;13.012;2022-12-18T03:28:20;102939.03;;;-7.48;95.75
76832;BME280;65792;52.880;13.012;2022-12-18T03:30:49;102944.50;;;-7.74;96.37
76832;BME280;65792;52.880;13.012;2022-12-18T03:33:47;102927.59;;;-7.41;95.87
76832;BME280;65792;52.880;13.012;2022-12-18T03:36:16;102939.53;;;-7.55;95.61
76832;BME280;65792;52.880;13.012;2022-12-18T03:38:42;102940.53;;;-7.51;95.17
76832;BME280;65792;52.880;13.012;2022-12-18T03:46:52;102956.34;;;-7.72;96.20
76832;BME280;65792;52.880;13.012;2022-12-18T03:52:23;102953.81;;;-7.34;95.18
76832;BME280;65792;52.880;13.012;2022-12-18T03:54:52;102965.91;;;-7.45;95.39
76832;BME280;65792;52.880;13.012;2022-12-18T03:57:25;102986.75;;;-7.65;95.94
76832;BME280;65792;52.880;13.012;2022-12-18T03:59:56;102985.22;;;-7.44;95.80
76832;BME280;65792;52.880;13.012;2022-12-18T04:02:24;102977.97;;;-7.38;95.05
76832;BME280;65792;52.880;13.012;2022-12-18T04:04:53;102981.00;;;-7.45;94.67
76832;BME280;65792;52.880;13.012;2022-12-18T04:07:21;102967.75;;;-7.60;95.43
76832;BME280;65792;52.880;13.012;2022-12-18T04:09:48;102958.84;;;-7.72;95.88
76832;BME280;65792;52.880;13.012;2022-12-18T04:12:15;102953.59;;;-7.58;95.84
76832;BME280;65792;52.880;13.012;2022-12-18T04:14:41;102958.84;;;-7.72;95.28
76832;BME280;65792;52.880;13.012;2022-12-18T04:17:06;102954.19;;;-7.64;95.09
76832;BME280;65792;52.880;13.012;2022-12-18T04:19:32;102955.75;;;-7.48;95.23
76832;BME280;65792;52.880;13.012;2022-12-18T04:21:57;102944.94;;;-7.65;95.14
76832;BME280;65792;52.880;13.012;2022-12-18T04:24:23;102955.47;;;-7.54;95.31
76832;BME280;65792;52.880;13.012;2022-12-18T04:26:48;102965.13;;;-7.44;95.29
76832;BME280;65792;52.880;13.012;2022-12-18T04:29:14;102970.59;;;-7.53;94.86
76832;BME280;65792;52.880;13.012;2022-12-18T04:31:39;102978.84;;;-7.55;94.62
76832;BME280;65792;52.880;13.012;2022-12-18T04:34:05;102984.72;;;-7.55;94.85
76832;BME280;65792;52.880;13.012;2022-12-18T04:36:30;102978.72;;;-7.58;94.76
76832;BME280;65792;52.880;13.012;2022-12-18T04:38:56;102968.28;;;-7.48;94.58
76832;BME280;65792;52.880;13.012;2022-12-18T04:41:21;102986.31;;;-7.57;94.87
76832;BME280;65792;52.880;13.012;2022-12-18T04:43:47;102995.34;;;-7.43;94.79
76832;BME280;65792;52.880;13.012;2022-12-18T04:46:13;102993.88;;;-7.38;94.13
76832;BME280;65792;52.880;13.012;2022-12-18T04:48:38;102996.19;;;-7.42;94.07
76832;BME280;65792;52.880;13.012;2022-12-18T04:51:05;102998.91;;;-7.38;94.16
76832;BME280;65792;52.880;13.012;2022-12-18T04:53:31;103008.69;;;-7.61;94.81
76832;BME280;65792;52.880;13.012;2022-12-18T04:56:11;103004.81;;;-7.73;94.87
76832;BME280;65792;52.880;13.012;2022-12-18T04:58:39;103010.28;;;-7.63;94.43
76832;BME280;65792;52.880;13.012;2022-12-18T05:01:05;103015.41;;;-7.80;94.86
76832;BME280;65792;52.880;13.012;2022-12-18T05:03:32;103019.88;;;-7.55;94.53
76832;BME280;65792;52.880;13.012;2022-12-18T05:05:58;103032.09;;;-7.80;94.79
76832;BME280;65792;52.880;13.012;2022-12-18T05:08:24;103018.72;;;-7.44;94.85
76832;BME280;65792;52.880;13.012;2022-12-18T05:10:49;103022.13;;;-7.61;95.21
76832;BME280;65792;52.880;13.012;2022-12-18T05:13:15;103029.94;;;-7.73;94.68
76832;BME280;65792;52.880;13.012;2022-12-18T05:15:41;103026.41;;;-7.76;94.67
76832;BME280;65792;52.880;13.012;2022-12-18T05:18:07;103026.50;;;-7.57;94.32
76832;BME280;65792;52.880;13.012;2022-12-18T05:20:33;103037.47;;;-7.35;94.13
76832;BME280;65792;52.880;13.012;2022-12-18T05:22:59;103039.97;;;-7.55;93.94
76832;BME280;65792;52.880;13.012;2022-12-18T05:25:24;103033.31;;;-7.72;94.89
76832;BME280;65792;52.880;13.012;2022-12-18T05:27:50;103038.47;;;-7.51;94.33
76832;BME280;65792;52.880;13.012;2022-12-18T05:30:16;103033.22;;;-7.74;94.50
76832;BME280;65792;52.880;13.012;2022-12-18T05:32:42;103030.88;;;-7.71;94.76
76832;BME280;65792;52.880;13.012;2022-12-18T05:35:09;103029.50;;;-7.64;94.26
76832;BME280;65792;52.880;13.012;2022-12-18T05:37:35;103022.47;;;-7.53;94.22
76832;BME280;65792;52.880;13.012;2022-12-18T05:40:03;103020.31;;;-7.63;94.61
76832;BME280;65792;52.880;13.012;2022-12-18T05:42:29;103022.41;;;-7.73;95.05
76832;BME280;65792;52.880;13.012;2022-12-18T05:44:54;103025.47;;;-7.60;94.86
76832;BME280;65792;52.880;13.012;2022-12-18T05:47:19;103020.81;;;-7.53;94.87
76832;BME280;65792;52.880;13.012;2022-12-18T05:49:45;103028.78;;;-7.61;94.72
76832;BME280;65792;52.880;13.012;2022-12-18T05:52:11;103022.50;;;-7.89;95.28
76832;BME280;65792;52.880;13.012;2022-12-18T05:54:36;103037.81;;;-7.65;95.19
76832;BME280;65792;52.880;13.012;2022-12-18T05:57:02;103026.06;;;-7.66;95.39
76832;BME280;65792;52.880;13.012;2022-12-18T05:59:27;103025.19;;;-7.66;94.64
76832;BME280;65792;52.880;13.012;2022-12-18T06:01:53;103032.75;;;-7.84;94.87
76832;BME280;65792;52.880;13.012;2022-12-18T06:04:18;103041.47;;;-7.76;94.86
76832;BME280;65792;52.880;13.012;2022-12-18T06:06:44;103048.22;;;-7.75;95.56
76832;BME280;65792;52.880;13.012;2022-12-18T06:09:09;103046.84;;;-7.68;95.23
76832;BME280;65792;52.880;13.012;2022-12-18T06:11:36;103050.66;;;-7.77;95.18
76832;BME280;65792;52.880;13.012;2022-12-18T06:14:04;103050.94;;;-7.71;94.89
76832;BME280;65792;52.880;13.012;2022-12-18T06:16:30;103057.84;;;-7.84;94.83
76832;BME280;65792;52.880;13.012;2022-12-18T06:18:57;103057.41;;;-7.58;94.85
76832;BME280;65792;52.880;13.012;2022-12-18T06:21:22;103060.69;;;-7.77;94.80
76832;BME280;65792;52.880;13.012;2022-12-18T06:23:48;103056.38;;;-7.79;94.67
76832;BME280;65792;52.880;13.012;2022-12-18T06:26:14;103065.72;;;-7.77;94.95
76832;BME280;65792;52.880;13.012;2022-12-18T06:28:39;103074.44;;;-8.04;95.39
76832;BME280;65792;52.880;13.012;2022-12-18T06:31:05;103078.84;;;-7.64;94.60
76832;BME280;65792;52.880;13.012;2022-12-18T06:33:31;103086.03;;;-7.54;94.75
76832;BME280;65792;52.880;13.012;2022-12-18T06:36:05;103084.00;;;-7.61;94.27
76832;BME280;65792;52.880;13.012;2022-12-18T06:38:32;103085.16;;;-7.73;94.72
76832;BME280;65792;52.880;13.012;2022-12-18T06:40:58;103076.88;;;-8.06;94.77
76832;BME280;65792;52.880;13.012;2022-12-18T06:43:24;103093.63;;;-7.88;95.49
76832;BME280;65792;52.880;13.012;2022-12-18T06:45:49;103086.16;;;-7.87;95.03
76832;BME280;65792;52.880;13.012;2022-12-18T06:48:20;103074.19;;;-7.92;95.47
76832;BME280;65792;52.880;13.012;2022-12-18T06:50:46;103070.25;;;-7.87;95.32
76832;BME280;65792;52.880;13.012;2022-12-18T06:53:12;103058.34;;;-7.91;95.22
76832;BME280;65792;52.880;13.012;2022-12-18T06:55:37;103056.34;;;-7.81;95.26
76832;BME280;65792;52.880;13.012;2022-12-18T06:58:03;103053.88;;;-7.97;95.84
76832;BME280;65792;52.880;13.012;2022-12-18T07:00:28;103059.91;;;-7.93;95.61
76832;BME280;65792;52.880;13.012;2022-12-18T07:02:54;103067.28;;;-7.79;95.23
76832;BME280;65792;52.880;13.012;2022-12-18T07:05:19;103070.81;;;-7.93;95.09
76832;BME280;65792;52.880;13.012;2022-12-18T07:07:45;103086.56;;;-7.78;95.36
76832;BME280;65792;52.880;13.012;2022-12-18T07:10:10;103093.22;;;-7.80;94.79
76832;BME280;65792;52.880;13.012;2022-12-18T07:12:36;103096.91;;;-7.72;94.79
76832;BME280;65792;52.880;13.012;2022-12-18T07:15:02;103094.03;;;-7.79;94.79
76832;BME280;65792;52.880;13.012;2022-12-18T07:17:27;103083.44;;;-7.74;94.32
76832;BME280;65792;52.880;13.012;2022-12-18T07:19:53;103083.44;;;-7.74;95.10
76832;BME280;65792;52.880;13.012;2022-12-18T07:22:19;103090.31;;;-7.69;94.26
76832;BME280;65792;52.880;13.012;2022-12-18T07:24:44;103097.66;;;-7.56;94.30
76832;BME280;65792;52.880;13.012;2022-12-18T07:27:10;103100.31;;;-7.53;94.23
76832;BME280;65792;52.880;13.012;2022-12-18T07:29:35;103088.97;;;-7.45;94.04
76832;BME280;65792;52.880;13.012;2022-12-18T07:32:01;103082.22;;;-7.82;94.48
76832;BME280;65792;52.880;13.012;2022-12-18T07:34:26;103083.59;;;-7.53;94.28
76832;BME280;65792;52.880;13.012;2022-12-18T07:36:52;103083.31;;;-7.41;94.35
76832;BME280;65792;52.880;13.012;2022-12-18T07:39:17;103080.78;;;-7.59;94.53
76832;BME280;65792;52.880;13.012;2022-12-18T07:41:43;103088.81;;;-7.66;95.01
76832;BME280;65792;52.880;13.012;2022-12-18T07:44:12;103085.44;;;-7.66;95.10
76832;BME280;65792;52.880;13.012;2022-12-18T07:46:37;103090.03;;;-7.58;94.58
76832;BME280;65792;52.880;13.012;2022-12-18T07:49:03;103088.88;;;-7.64;94.64
76832;BME280;65792;52.880;13.012;2022-12-18T07:51:29;103086.81;;;-7.38;94.33
76832;BME280;65792;52.880;13.012;2022-12-18T07:53:55;103095.78;;;-7.43;94.24
76832;BME280;65792;52.880;13.012;2022-12-18T07:56:21;103105.25;;;-7.55;94.80
76832;BME280;65792;52.880;13.012;2022-12-18T07:58:47;103104.25;;;-7.58;94.37
76832;BME280;65792;52.880;13.012;2022-12-18T08:01:12;103113.44;;;-7.59;95.06
76832;BME280;65792;52.880;13.012;2022-12-18T08:03:39;103109.69;;;-7.49;94.73
76832;BME280;65792;52.880;13.012;2022-12-18T08:06:07;103113.41;;;-7.77;95.27
76832;BME280;65792;52.880;13.012;2022-12-18T08:08:33;103117.03;;;-7.54;95.60
76832;BME280;65792;52.880;13.012;2022-12-18T08:11:00;103112.84;;;-7.53;95.19
76832;BME280;65792;52.880;13.012;2022-12-18T08:13:26;103117.31;;;-7.48;94.41
76832;BME280;65792;52.880;13.012;2022-12-18T08:15:59;103116.88;;;-7.39;94.11
76832;BME280;65792;52.880;13.012;2022-12-18T08:18:25;103117.09;;;-7.52;94.36
76832;BME280;65792;52.880;13.012;2022-12-18T08:20:50;103121.63;;;-7.45;94.85
76832;BME280;65792;52.880;13.012;2022-12-18T08:23:16;103128.50;;;-7.41;94.29
76832;BME280;65792;52.880;13.012;2022-12-18T08:25:42;103123.63;;;-7.56;94.75
76832;BME280;65792;52.880;13.012;2022-12-18T08:28:07;103122.09;;;-7.34;94.32
76832;BME280;65792;52.880;13.012;2022-12-18T08:30:32;103125.56;;;-7.50;95.05
76832;BME280;65792;52.880;13.012;2022-12-18T08:32:58;103132.66;;;-7.42;94.74
76832;BME280;65792;52.880;13.012;2022-12-18T08:35:23;103132.84;;;-7.19;94.02
76832;BME280;65792;52.880;13.012;2022-12-18T08:37:49;103124.81;;;-7.30;94.50
76832;BME280;65792;52.880;13.012;2022-12-18T08:40:15;103128.91;;;-7.32;94.35
76832;BME280;65792;52.880;13.012;2022-12-18T08:42:41;103122.94;;;-7.16;94.73
76832;BME280;65792;52.880;13.012;2022-12-18T08:45:25;103124.53;;;-7.18;94.71
76832;BME280;65792;52.880;13.012;2022-12-18T08:47:51;103136.38;;;-7.16;94.37
76832;BME280;65792;52.880;13.012;2022-12-18T08:50:17;103134.06;;;-7.29;94.16
76832;BME280;65792;52.880;13.012;2022-12-18T08:52:42;103141.13;;;-7.22;94.68
76832;BME280;65792;52.880;13.012;2022-12-18T08:55:09;103157.75;;;-7.24;94.30
76832;BME280;65792;52.880;13.012;2022-12-18T08:57:34;103176.63;;;-7.32;94.74
76832;BME280;65792;52.880;13.012;2022-12-18T09:00:00;103178.00;;;-7.21;94.89
76832;BME280;65792;52.880;13.012;2022-12-18T09:02:26;103177.28;;;-7.18;94.81
76832;BME280;65792;52.880;13.012;2022-12-18T09:04:51;103168.88;;;-7.01;93.90
76832;BME280;65792;52.880;13.012;2022-12-18T09:07:16;103172.97;;;-7.03;94.57
76832;BME280;65792;52.880;13.012;2022-12-18T09:09:42;103176.03;;;-6.91;94.55
76832;BME280;65792;52.880;13.012;2022-12-18T09:12:08;103178.16;;;-7.18;94.21
76832;BME280;65792;52.880;13.012;2022-12-18T09:14:34;103170.56;;;-6.82;94.25
76832;BME280;65792;52.880;13.012;2022-12-18T09:16:59;103170.94;;;-6.92;94.51
76832;BME280;65792;52.880;13.012;2022-12-18T09:19:25;103170.69;;;-6.98;94.20
76832;BME280;65792;52.880;13.012;2022-12-18T09:21:50;103175.53;;;-6.84;94.09
76832;BME280;65792;52.880;13.012;2022-12-18T09:24:16;103174.94;;;-6.78;94.22
76832;BME280;65792;52.880;13.012;2022-12-18T09:26:42;103172.50;;;-6.77;94.33
76832;BME280;65792;52.880;13.012;2022-12-18T09:29:08;103171.06;;;-6.89;94.40
76832;BME280;65792;52.880;13.012;2022-12-18T09:31:34;103158.25;;;-6.95;94.55
76832;BME280;65792;52.880;13.012;2022-12-18T09:34:00;103156.63;;;-6.76;93.97
76832;BME280;65792;52.880;13.012;2022-12-18T09:36:26;103150.38;;;-6.84;94.13
76832;BME280;65792;52.880;13.012;2022-12-18T09:38:51;103143.28;;;-6.92;94.20
76832;BME280;65792;52.880;13.012;2022-12-18T09:41:32;103140.19;;;-6.87;94.03
76832;BME280;65792;52.880;13.012;2022-12-18T09:44:04;103137.22;;;-6.97;94.66
76832;BME280;65792;52.880;13.012;2022-12-18T09:46:33;103123.94;;;-6.95;94.26
76832;BME280;65792;52.880;13.012;2022-12-18T09:49:03;103132.84;;;-6.82;94.31
76832;BME280;65792;52.880;13.012;2022-12-18T09:51:36;103122.22;;;-6.77;94.16
76832;BME280;65792;52.880;13.012;2022-12-18T09:54:16;103119.56;;;-6.99;94.15
76832;BME280;65792;52.880;13.012;2022-12-18T09:56:44;103122.88;;;-6.81;94.58
76832;BME280;65792;52.880;13.012;2022-12-18T09:59:24;103109.25;;;-6.66;93.99
76832;BME280;65792;52.880;13.012;2022-12-18T10:01:50;103115.88;;;-6.68;94.51
76832;BME280;65792;52.880;13.012;2022-12-18T10:04:16;103111.72;;;-6.68;94.10
76832;BME280;65792;52.880;13.012;2022-12-18T10:10:16;103110.97;;;-6.46;94.46
76832;BME280;65792;52.880;13.012;2022-12-18T10:13:12;103103.03;;;-6.55;94.28
76832;BME280;65792;52.880;13.012;2022-12-18T10:15:53;103119.78;;;-6.75;94.40
76832;BME280;65792;52.880;13.012;2022-12-18T10:20:54;103119.78;;;-6.56;94.01
76832;BME280;65792;52.880;13.012;2022-12-18T10:23:32;103109.16;;;-6.49;94.24
76832;BME280;65792;52.880;13.012;2022-12-18T10:26:07;103115.16;;;-6.66;93.84
76832;BME280;65792;52.880;13.012;2022-12-18T10:28:52;103113.28;;;-6.31;94.28
76832;BME280;65792;52.880;13.012;2022-12-18T10:31:21;103105.13;;;-6.84;94.77
76832;BME280;65792;52.880;13.012;2022-12-18T10:33:48;103103.25;;;-6.51;94.61
76832;BME280;65792;52.880;13.012;2022-12-18T10:36:14;103090.66;;;-6.51;94.82
76832;BME280;65792;52.880;13.012;2022-12-18T10:38:39;103089.41;;;-6.60;94.72
76832;BME280;65792;52.880;13.012;2022-12-18T10:41:23;103087.81;;;-6.58;94.44
76832;BME280;65792;52.880;13.012;2022-12-18T10:46:40;103085.00;;;-6.26;94.59
76832;BME280;65792;52.880;13.012;2022-12-18T10:49:18;103093.72;;;-6.58;95.03
76832;BME280;65792;52.880;13.012;2022-12-18T10:51:45;103092.06;;;-6.17;94.58
76832;BME280;65792;52.880;13.012;2022-12-18T10:54:22;103093.84;;;-6.15;94.24
76832;BME280;65792;52.880;13.012;2022-12-18T10:56:48;103098.44;;;-6.25;94.59
76832;BME280;65792;52.880;13.012;2022-12-18T10:59:16;103091.88;;;-6.01;93.77
76832;BME280;65792;52.880;13.012;2022-12-18T11:01:56;103093.34;;;-6.27;94.21
76832;BME280;65792;52.880;13.012;2022-12-18T11:04:30;103092.88;;;-6.18;94.26
76832;BME280;65792;52.880;13.012;2022-12-18T11:07:03;103093.00;;;-6.15;94.79
76832;BME280;65792;52.880;13.012;2022-12-18T11:09:34;103086.56;;;-5.86;94.54
76832;BME280;65792;52.880;13.012;2022-12-18T11:12:21;103080.81;;;-6.05;94.17
76832;BME280;65792;52.880;13.012;2022-12-18T11:14:51;103072.31;;;-5.86;94.18
76832;BME280;65792;52.880;13.012;2022-12-18T11:17:27;103067.41;;;-5.83;94.60
76832;BME280;65792;52.880;13.012;2022-12-18T11:19:59;103066.72;;;-6.01;94.56
76832;BME280;65792;52.880;13.012;2022-12-18T11:22:30;103070.28;;;-6.17;94.38
76832;BME280;65792;52.880;13.012;2022-12-18T11:27:55;103068.09;;;-5.87;94.39
76832;BME280;65792;52.880;13.012;2022-12-18T11:33:17;103071.19;;;-5.94;94.26
76832;BME280;65792;52.880;13.012;2022-12-18T11:36:10;103078.28;;;-5.84;94.31
76832;BME280;65792;52.880;13.012;2022-12-18T11:38:43;103085.84;;;-5.84;94.26
76832;BME280;65792;52.880;13.012;2022-12-18T11:43:52;103098.63;;;-6.00;94.62
76832;BME280;65792;52.880;13.012;2022-12-18T11:46:43;103095.38;;;-5.97;94.31
76832;BME280;65792;52.880;13.012;2022-12-18T11:49:35;103099.06;;;-5.89;94.62
76832;BME280;65792;52.880;13.012;2022-12-18T11:52:21;103099.22;;;-6.07;94.66
76832;BME280;65792;52.880;13.012;2022-12-18T11:54:51;103101.63;;;-5.88;94.37
76832;BME280;65792;52.880;13.012;2022-12-18T12:11:00;103120.66;;;-5.74;94.61
76832;BME280;65792;52.880;13.012;2022-12-18T12:16:11;103108.84;;;-5.54;94.42
76832;BME280;65792;52.880;13.012;2022-12-18T12:21:47;103121.25;;;-5.58;95.00
76832;BME280;65792;52.880;13.012;2022-12-18T12:24:27;103116.88;;;-5.62;94.69
76832;BME280;65792;52.880;13.012;2022-12-18T12:29:42;103121.13;;;-5.61;94.96
76832;BME280;65792;52.880;13.012;2022-12-18T12:32:41;103125.69;;;-5.53;94.24
76832;BME280;65792;52.880;13.012;2022-12-18T12:38:35;103103.22;;;-5.69;95.12
76832;BME280;65792;52.880;13.012;2022-12-18T12:41:12;103099.41;;;-5.80;94.71
76832;BME280;65792;52.880;13.012;2022-12-18T12:44:01;103088.56;;;-5.57;95.03
76832;BME280;65792;52.880;13.012;2022-12-18T12:46:31;103073.97;;;-5.65;95.13
76832;BME280;65792;52.880;13.012;2022-12-18T12:49:02;103067.16;;;-5.68;95.58
76832;BME280;65792;52.880;13.012;2022-12-18T12:51:32;103068.47;;;-5.55;94.84
76832;BME280;65792;52.880;13.012;2022-12-18T12:54:00;103064.16;;;-5.80;94.96
76832;BME280;65792;52.880;13.012;2022-12-18T12:56:40;103068.47;;;-5.78;95.52
76832;BME280;65792;52.880;13.012;2022-12-18T12:59:27;103079.03;;;-5.65;95.35
76832;BME280;65792;52.880;13.012;2022-12-18T13:04:47;103090.56;;;-5.71;95.45
76832;BME280;65792;52.880;13.012;2022-12-18T13:12:59;103090.53;;;-5.50;94.95
76832;BME280;65792;52.880;13.012;2022-12-18T13:18:21;103079.22;;;-5.59;95.17
76832;BME280;65792;52.880;13.012;2022-12-18T13:23:26;103073.34;;;-5.60;94.86
76832;BME280;65792;52.880;13.012;2022-12-18T13:34:19;103046.09;;;-5.48;95.38
76832;BME280;65792;52.880;13.012;2022-12-18T13:36:46;103045.25;;;-5.48;95.39
76832;BME280;65792;52.880;13.012;2022-12-18T13:39:21;103039.03;;;-5.56;95.54
76832;BME280;65792;52.880;13.012;2022-12-18T13:41:49;103036.88;;;-5.70;95.68
76832;BME280;65792;52.880;13.012;2022-12-18T13:46:48;103041.63;;;-5.55;95.84
76832;BME280;65792;52.880;13.012;2022-12-18T13:49:37;103025.09;;;-5.48;95.72
76832;BME280;65792;52.880;13.012;2022-12-18T13:52:23;103032.09;;;-5.62;96.06
76832;BME280;65792;52.880;13.012;2022-12-18T13:54:55;103028.47;;;-5.48;95.71
76832;BME280;65792;52.880;13.012;2022-12-18T13:57:36;103028.56;;;-5.45;95.82
76832;BME280;65792;52.880;13.012;2022-12-18T14:00:32;103024.06;;;-5.53;95.65
76832;BME280;65792;52.880;13.012;2022-12-18T14:02:59;103024.09;;;-5.52;96.05
76832;BME280;65792;52.880;13.012;2022-12-18T14:07:50;103023.31;;;-5.51;95.77
76832;BME280;65792;52.880;13.012;2022-12-18T14:10:16;103016.66;;;-5.49;96.31
76832;BME280;65792;52.880;13.012;2022-12-18T14:12:47;103007.22;;;-5.54;96.32
76832;BME280;65792;52.880;13.012;2022-12-18T14:17:59;102987.34;;;-5.47;95.83
76832;BME280;65792;52.880;13.012;2022-12-18T14:20:26;102992.34;;;-5.48;95.83
76832;BME280;65792;52.880;13.012;2022-12-18T14:22:53;102989.53;;;-5.56;96.29
76832;BME280;65792;52.880;13.012;2022-12-18T14:25:22;102977.09;;;-5.51;96.41
76832;BME280;65792;52.880;13.012;2022-12-18T14:33:31;102964.50;;;-5.51;95.96
76832;BME280;65792;52.880;13.012;2022-12-18T14:35:40;102953.88;;;-5.66;96.05
76832;BME280;65792;52.880;13.012;2022-12-18T14:43:35;102952.78;;;-5.51;96.24